sensor_id;sensor_type;location;lat;lon;timestamp;P1;durP1;ratioP1;P2;durP2;ratioP2
39434;SDS011;30098;51.880;-0.518;2022-08-01T00:01:15;1.40;;;1.30;;
39434;SDS011;30098;51.880;-0.518;2022-08-01T00:03:40;1.40;;;1.30;;
39434;SDS011;30098;51.880;-0.518;2022-08-01T00:06:06;1.10;;;1.10;;
39434;SDS011;30098;51.880;-0.518;2022-08-01T00:08:31;1.38;;;1.27;;
39434;SDS011;30098;51.880;-0.518;2022-08-01T00:10:57;1.30;;;1.20;;
39434;SDS011;30098;51.880;-0.518;2022-08-01T00:13:22;1.20;;;1.10;;
39434;SDS011;30098;51.880;-0.518;2022-08-01T00:15:48;1.30;;;1.20;;
39434;SDS011;30098;51.880;-0.518;2022-08-01T00:18:13;1.30;;;1.20;;
39434;SDS011;30098;51.880;-0.518;2022-08-01T00:20:39;1.25;;;1.15;;
39434;SDS011;30098;51.880;-0.518;2022-08-01T00:23:04;1.17;;;1.08;;
39434;SDS011;30098;51.880;-0.518;2022-08-01T00:25:30;1.33;;;1.23;;
39434;SDS011;30098;51.880;-0.518;2022-08-01T00:27:56;1.20;;;1.10;;
39434;SDS011;30098;51.880;-0.518;2022-08-01T00:30:21;1.50;;;1.27;;
39434;SDS011;30098;51.880;-0.518;2022-08-01T00:32:47;1.30;;;1.20;;
39434;SDS011;30098;51.880;-0.518;2022-08-01T00:35:12;1.15;;;1.05;;
39434;SDS011;30098;51.880;-0.518;2022-08-01T00:37:38;1.27;;;1.17;;
39434;SDS011;30098;51.880;-0.518;2022-08-01T00:40:04;1.25;;;1.10;;
39434;SDS011;30098;51.880;-0.518;2022-08-01T00:42:30;1.20;;;1.10;;
39434;SDS011;30098;51.880;-0.518;2022-08-01T00:44:56;1.45;;;1.35;;
39434;SDS011;30098;51.880;-0.518;2022-08-01T00:47:22;1.20;;;1.10;;
39434;SDS011;30098;51.880;-0.518;2022-08-01T00:49:47;1.38;;;1.25;;
39434;SDS011;30098;51.880;-0.518;2022-08-01T00:52:13;1.20;;;1.10;;
39434;SDS011;30098;51.880;-0.518;2022-08-01T00:54:38;1.40;;;1.23;;
39434;SDS011;30098;51.880;-0.518;2022-08-01T00:57:05;1.40;;;1.30;;
39434;SDS011;30098;51.880;-0.518;2022-08-01T00:59:30;1.30;;;1.20;;
39434;SDS011;30098;51.880;-0.518;2022-08-01T01:01:56;1.25;;;1.15;;
39434;SDS011;30098;51.880;-0.518;2022-08-01T01:04:21;1.30;;;1.20;;
39434;SDS011;30098;51.880;-0.518;2022-08-01T01:09:38;1.30;;;1.20;;
39434;SDS011;30098;51.880;-0.518;2022-08-01T01:15:00;1.30;;;1.20;;
39434;SDS011;30098;51.880;-0.518;2022-08-01T01:17:33;1.40;;;1.30;;
39434;SDS011;30098;51.880;-0.518;2022-08-01T01:20:04;1.33;;;1.23;;
39434;SDS011;30098;51.880;-0.518;2022-08-01T01:26:08;1.30;;;1.20;;
39434;SDS011;30098;51.880;-0.518;2022-08-01T01:31:44;1.50;;;1.40;;
39434;SDS011;30098;51.880;-0.518;2022-08-01T01:34:15;1.30;;;1.20;;
39434;SDS011;30098;51.880;-0.518;2022-08-01T01:36:43;1.40;;;1.30;;
39434;SDS011;30098;51.880;-0.518;2022-08-01T01:39:11;1.30;;;1.20;;
39434;SDS011;30098;51.880;-0.518;2022-08-01T01:41:39;1.30;;;1.20;;
39434;SDS011;30098;51.880;-0.518;2022-08-01T01:44:06;1.42;;;1.30;;
39434;SDS011;30098;51.880;-0.518;2022-08-01T01:46:33;1.38;;;1.27;;
39434;SDS011;30098;51.880;-0.518;2022-08-01T01:49:00;1.50;;;1.40;;
39434;SDS011;30098;51.880;-0.518;2022-08-01T01:51:27;1.75;;;1.30;;
39434;SDS011;30098;51.880;-0.518;2022-08-01T01:53:55;1.50;;;1.40;;
39434;SDS011;30098;51.880;-0.518;2022-08-01T01:56:21;1.30;;;1.20;;
39434;SDS011;30098;51.880;-0.518;2022-08-01T01:58:48;1.30;;;1.20;;
39434;SDS011;30098;51.880;-0.518;2022-08-01T02:01:19;1.30;;;1.20;;
39434;SDS011;30098;51.880;-0.518;2022-08-01T02:03:47;1.40;;;1.30;;
39434;SDS011;30098;51.880;-0.518;2022-08-01T02:06:14;1.33;;;1.23;;
39434;SDS011;30098;51.880;-0.518;2022-08-01T02:08:41;1.38;;;1.27;;
39434;SDS011;30098;51.880;-0.518;2022-08-01T02:11:09;1.10;;;1.10;;
39434;SDS011;30098;51.880;-0.518;2022-08-01T02:13:44;1.40;;;1.30;;
39434;SDS011;30098;51.880;-0.518;2022-08-01T02:16:16;1.30;;;1.20;;
39434;SDS011;30098;51.880;-0.518;2022-08-01T02:18:42;1.30;;;1.20;;
39434;SDS011;30098;51.880;-0.518;2022-08-01T02:21:08;1.40;;;1.30;;
39434;SDS011;30098;51.880;-0.518;2022-08-01T02:23:37;1.52;;;1.42;;
39434;SDS011;30098;51.880;-0.518;2022-08-01T02:26:06;1.35;;;1.25;;
39434;SDS011;30098;51.880;-0.518;2022-08-01T02:28:39;1.30;;;1.20;;
39434;SDS011;30098;51.880;-0.518;2022-08-01T02:31:12;1.45;;;1.35;;
39434;SDS011;30098;51.880;-0.518;2022-08-01T02:33:43;1.15;;;1.10;;
39434;SDS011;30098;51.880;-0.518;2022-08-01T02:36:11;1.30;;;1.20;;
39434;SDS011;30098;51.880;-0.518;2022-08-01T02:38:40;1.30;;;1.20;;
39434;SDS011;30098;51.880;-0.518;2022-08-01T02:41:09;1.25;;;1.15;;
39434;SDS011;30098;51.880;-0.518;2022-08-01T02:43:38;1.50;;;1.40;;
39434;SDS011;30098;51.880;-0.518;2022-08-01T02:46:09;1.40;;;1.30;;
39434;SDS011;30098;51.880;-0.518;2022-08-01T02:48:46;1.42;;;1.33;;
39434;SDS011;30098;51.880;-0.518;2022-08-01T02:51:15;1.48;;;1.38;;
39434;SDS011;30098;51.880;-0.518;2022-08-01T02:53:42;1.38;;;1.27;;
39434;SDS011;30098;51.880;-0.518;2022-08-01T02:56:09;1.38;;;1.27;;
39434;SDS011;30098;51.880;-0.518;2022-08-01T02:58:36;1.40;;;1.30;;
39434;SDS011;30098;51.880;-0.518;2022-08-01T03:01:04;1.40;;;1.30;;
39434;SDS011;30098;51.880;-0.518;2022-08-01T03:03:32;1.27;;;1.17;;
39434;SDS011;30098;51.880;-0.518;2022-08-01T03:05:59;1.10;;;1.10;;
39434;SDS011;30098;51.880;-0.518;2022-08-01T03:08:27;1.30;;;1.20;;
39434;SDS011;30098;51.880;-0.518;2022-08-01T03:10:55;1.45;;;1.35;;
39434;SDS011;30098;51.880;-0.518;2022-08-01T03:13:24;1.40;;;1.30;;
39434;SDS011;30098;51.880;-0.518;2022-08-01T03:15:53;1.23;;;1.13;;
39434;SDS011;30098;51.880;-0.518;2022-08-01T03:18:20;1.33;;;1.23;;
39434;SDS011;30098;51.880;-0.518;2022-08-01T03:20:48;1.50;;;1.40;;
39434;SDS011;30098;51.880;-0.518;2022-08-01T03:23:15;1.48;;;1.38;;
39434;SDS011;30098;51.880;-0.518;2022-08-01T03:25:43;1.50;;;1.40;;
39434;SDS011;30098;51.880;-0.518;2022-08-01T03:28:12;1.30;;;1.20;;
39434;SDS011;30098;51.880;-0.518;2022-08-01T03:30:39;1.50;;;1.40;;
39434;SDS011;30098;51.880;-0.518;2022-08-01T03:33:07;1.40;;;1.30;;
39434;SDS011;30098;51.880;-0.518;2022-08-01T03:35:34;1.50;;;1.40;;
39434;SDS011;30098;51.880;-0.518;2022-08-01T03:38:04;1.50;;;1.40;;
39434;SDS011;30098;51.880;-0.518;2022-08-01T03:40:38;1.60;;;1.50;;
39434;SDS011;30098;51.880;-0.518;2022-08-01T03:43:07;1.10;;;1.08;;
39434;SDS011;30098;51.880;-0.518;2022-08-01T03:45:38;1.40;;;1.30;;
39434;SDS011;30098;51.880;-0.518;2022-08-01T03:48:09;1.40;;;1.30;;
39434;SDS011;30098;51.880;-0.518;2022-08-01T03:50:39;1.60;;;1.40;;
39434;SDS011;30098;51.880;-0.518;2022-08-01T03:53:08;1.50;;;1.40;;
39434;SDS011;30098;51.880;-0.518;2022-08-01T03:55:35;1.50;;;1.40;;
39434;SDS011;30098;51.880;-0.518;2022-08-01T03:58:03;1.42;;;1.33;;
39434;SDS011;30098;51.880;-0.518;2022-08-01T04:00:30;1.48;;;1.38;;
39434;SDS011;30098;51.880;-0.518;2022-08-01T04:02:56;1.52;;;1.42;;
39434;SDS011;30098;51.880;-0.518;2022-08-01T04:05:22;1.30;;;1.20;;
39434;SDS011;30098;51.880;-0.518;2022-08-01T04:07:48;1.40;;;1.30;;
39434;SDS011;30098;51.880;-0.518;2022-08-01T04:10:21;1.50;;;1.40;;
39434;SDS011;30098;51.880;-0.518;2022-08-01T04:12:48;1.40;;;1.30;;
39434;SDS011;30098;51.880;-0.518;2022-08-01T04:15:13;1.33;;;1.23;;
39434;SDS011;30098;51.880;-0.518;2022-08-01T04:17:39;1.30;;;1.20;;
39434;SDS011;30098;51.880;-0.518;2022-08-01T04:20:05;1.50;;;1.40;;
39434;SDS011;30098;51.880;-0.518;2022-08-01T04:22:31;1.48;;;1.38;;
39434;SDS011;30098;51.880;-0.518;2022-08-01T04:24:57;1.50;;;1.40;;
39434;SDS011;30098;51.880;-0.518;2022-08-01T04:27:26;1.40;;;1.30;;
39434;SDS011;30098;51.880;-0.518;2022-08-01T04:29:58;1.40;;;1.30;;
39434;SDS011;30098;51.880;-0.518;2022-08-01T04:32:25;1.50;;;1.40;;
39434;SDS011;30098;51.880;-0.518;2022-08-01T04:34:53;1.40;;;1.30;;
39434;SDS011;30098;51.880;-0.518;2022-08-01T04:37:22;1.25;;;1.15;;
39434;SDS011;30098;51.880;-0.518;2022-08-01T04:39:48;1.40;;;1.30;;
39434;SDS011;30098;51.880;-0.518;2022-08-01T04:42:17;1.77;;;1.67;;
39434;SDS011;30098;51.880;-0.518;2022-08-01T04:44:43;1.58;;;1.30;;
39434;SDS011;30098;51.880;-0.518;2022-08-01T04:47:10;1.40;;;1.30;;
39434;SDS011;30098;51.880;-0.518;2022-08-01T04:49:36;1.30;;;1.20;;
39434;SDS011;30098;51.880;-0.518;2022-08-01T04:52:02;1.50;;;1.40;;
39434;SDS011;30098;51.880;-0.518;2022-08-01T04:54:33;1.30;;;1.20;;
39434;SDS011;30098;51.880;-0.518;2022-08-01T04:57:02;1.35;;;1.25;;
39434;SDS011;30098;51.880;-0.518;2022-08-01T04:59:29;1.50;;;1.40;;
39434;SDS011;30098;51.880;-0.518;2022-08-01T05:02:05;1.50;;;1.40;;
39434;SDS011;30098;51.880;-0.518;2022-08-01T05:04:32;1.30;;;1.20;;
39434;SDS011;30098;51.880;-0.518;2022-08-01T05:06:57;1.38;;;1.27;;
39434;SDS011;30098;51.880;-0.518;2022-08-01T05:09:23;1.40;;;1.30;;
39434;SDS011;30098;51.880;-0.518;2022-08-01T05:11:48;1.42;;;1.33;;
39434;SDS011;30098;51.880;-0.518;2022-08-01T05:14:14;1.45;;;1.35;;
39434;SDS011;30098;51.880;-0.518;2022-08-01T05:16:40;1.50;;;1.40;;
39434;SDS011;30098;51.880;-0.518;2022-08-01T05:19:07;1.60;;;1.50;;
39434;SDS011;30098;51.880;-0.518;2022-08-01T05:21:33;1.30;;;1.20;;
39434;SDS011;30098;51.880;-0.518;2022-08-01T05:23:59;1.67;;;1.58;;
39434;SDS011;30098;51.880;-0.518;2022-08-01T05:26:25;1.35;;;1.25;;
39434;SDS011;30098;51.880;-0.518;2022-08-01T05:28:50;1.50;;;1.40;;
39434;SDS011;30098;51.880;-0.518;2022-08-01T05:31:16;1.70;;;1.60;;
39434;SDS011;30098;51.880;-0.518;2022-08-01T05:33:41;1.42;;;1.33;;
39434;SDS011;30098;51.880;-0.518;2022-08-01T05:36:07;1.45;;;1.35;;
39434;SDS011;30098;51.880;-0.518;2022-08-01T05:38:32;1.40;;;1.30;;
39434;SDS011;30098;51.880;-0.518;2022-08-01T05:40:58;1.50;;;1.40;;
39434;SDS011;30098;51.880;-0.518;2022-08-01T05:43:23;1.38;;;1.27;;
39434;SDS011;30098;51.880;-0.518;2022-08-01T05:45:49;1.60;;;1.50;;
39434;SDS011;30098;51.880;-0.518;2022-08-01T05:48:14;1.30;;;1.20;;
39434;SDS011;30098;51.880;-0.518;2022-08-01T05:50:40;1.50;;;1.40;;
39434;SDS011;30098;51.880;-0.518;2022-08-01T05:53:05;1.40;;;1.30;;
39434;SDS011;30098;51.880;-0.518;2022-08-01T05:55:31;1.50;;;1.40;;
39434;SDS011;30098;51.880;-0.518;2022-08-01T05:57:56;1.38;;;1.27;;
39434;SDS011;30098;51.880;-0.518;2022-08-01T06:00:22;1.48;;;1.38;;
39434;SDS011;30098;51.880;-0.518;2022-08-01T06:02:47;1.52;;;1.42;;
39434;SDS011;30098;51.880;-0.518;2022-08-01T06:05:13;1.50;;;1.40;;
39434;SDS011;30098;51.880;-0.518;2022-08-01T06:07:38;1.50;;;1.40;;
39434;SDS011;30098;51.880;-0.518;2022-08-01T06:10:05;1.15;;;1.13;;
39434;SDS011;30098;51.880;-0.518;2022-08-01T06:12:34;1.48;;;1.38;;
39434;SDS011;30098;51.880;-0.518;2022-08-01T06:15:00;1.63;;;1.35;;
39434;SDS011;30098;51.880;-0.518;2022-08-01T06:17:26;1.55;;;1.40;;
39434;SDS011;30098;51.880;-0.518;2022-08-01T06:19:51;1.40;;;1.30;;
39434;SDS011;30098;51.880;-0.518;2022-08-01T06:22:17;1.40;;;1.30;;
39434;SDS011;30098;51.880;-0.518;2022-08-01T06:24:42;1.40;;;1.30;;
39434;SDS011;30098;51.880;-0.518;2022-08-01T06:27:08;1.38;;;1.27;;
39434;SDS011;30098;51.880;-0.518;2022-08-01T06:29:33;1.55;;;1.45;;
39434;SDS011;30098;51.880;-0.518;2022-08-01T06:32:00;1.42;;;1.33;;
39434;SDS011;30098;51.880;-0.518;2022-08-01T06:34:25;4.18;;;1.45;;
39434;SDS011;30098;51.880;-0.518;2022-08-01T06:36:51;2.15;;;1.38;;
39434;SDS011;30098;51.880;-0.518;2022-08-01T06:39:16;1.80;;;1.42;;
39434;SDS011;30098;51.880;-0.518;2022-08-01T06:41:42;1.40;;;1.30;;
39434;SDS011;30098;51.880;-0.518;2022-08-01T06:44:11;4.30;;;1.40;;
39434;SDS011;30098;51.880;-0.518;2022-08-01T06:46:36;2.20;;;1.65;;
39434;SDS011;30098;51.880;-0.518;2022-08-01T06:49:02;3.63;;;1.58;;
39434;SDS011;30098;51.880;-0.518;2022-08-01T06:51:28;4.03;;;1.63;;
39434;SDS011;30098;51.880;-0.518;2022-08-01T06:53:53;4.40;;;1.70;;
39434;SDS011;30098;51.880;-0.518;2022-08-01T06:56:19;2.17;;;1.77;;
39434;SDS011;30098;51.880;-0.518;2022-08-01T06:58:45;4.05;;;1.48;;
39434;SDS011;30098;51.880;-0.518;2022-08-01T07:01:10;3.15;;;1.40;;
39434;SDS011;30098;51.880;-0.518;2022-08-01T07:03:36;4.80;;;1.85;;
39434;SDS011;30098;51.880;-0.518;2022-08-01T07:06:02;4.70;;;1.65;;
39434;SDS011;30098;51.880;-0.518;2022-08-01T07:08:28;3.33;;;1.77;;
39434;SDS011;30098;51.880;-0.518;2022-08-01T07:10:54;2.75;;;1.50;;
39434;SDS011;30098;51.880;-0.518;2022-08-01T07:13:20;3.55;;;1.60;;
39434;SDS011;30098;51.880;-0.518;2022-08-01T07:15:50;4.90;;;1.60;;
39434;SDS011;30098;51.880;-0.518;2022-08-01T07:18:16;2.75;;;1.52;;
39434;SDS011;30098;51.880;-0.518;2022-08-01T07:20:42;4.72;;;1.63;;
39434;SDS011;30098;51.880;-0.518;2022-08-01T07:23:08;2.83;;;1.63;;
39434;SDS011;30098;51.880;-0.518;2022-08-01T07:25:33;2.78;;;1.50;;
39434;SDS011;30098;51.880;-0.518;2022-08-01T07:27:59;3.33;;;1.55;;
39434;SDS011;30098;51.880;-0.518;2022-08-01T07:30:24;3.67;;;1.40;;
39434;SDS011;30098;51.880;-0.518;2022-08-01T07:32:50;1.80;;;1.40;;
39434;SDS011;30098;51.880;-0.518;2022-08-01T07:35:16;2.10;;;1.67;;
39434;SDS011;30098;51.880;-0.518;2022-08-01T07:37:41;2.15;;;1.58;;
39434;SDS011;30098;51.880;-0.518;2022-08-01T07:40:07;3.03;;;1.52;;
39434;SDS011;30098;51.880;-0.518;2022-08-01T07:42:33;2.38;;;1.40;;
39434;SDS011;30098;51.880;-0.518;2022-08-01T07:44:58;4.93;;;1.50;;
39434;SDS011;30098;51.880;-0.518;2022-08-01T07:47:24;5.28;;;1.63;;
39434;SDS011;30098;51.880;-0.518;2022-08-01T07:49:50;4.13;;;2.03;;
39434;SDS011;30098;51.880;-0.518;2022-08-01T07:52:16;4.93;;;2.17;;
39434;SDS011;30098;51.880;-0.518;2022-08-01T07:54:42;7.30;;;2.50;;
39434;SDS011;30098;51.880;-0.518;2022-08-01T07:57:07;8.25;;;2.60;;
39434;SDS011;30098;51.880;-0.518;2022-08-01T07:59:33;7.20;;;2.47;;
39434;SDS011;30098;51.880;-0.518;2022-08-01T08:01:58;4.45;;;2.17;;
39434;SDS011;30098;51.880;-0.518;2022-08-01T08:04:24;4.10;;;2.17;;
39434;SDS011;30098;51.880;-0.518;2022-08-01T08:06:50;3.28;;;1.90;;
39434;SDS011;30098;51.880;-0.518;2022-08-01T08:09:17;6.60;;;2.10;;
39434;SDS011;30098;51.880;-0.518;2022-08-01T08:11:43;5.00;;;2.30;;
39434;SDS011;30098;51.880;-0.518;2022-08-01T08:14:09;5.18;;;2.00;;
39434;SDS011;30098;51.880;-0.518;2022-08-01T08:16:35;6.63;;;2.40;;
39434;SDS011;30098;51.880;-0.518;2022-08-01T08:19:00;5.93;;;2.28;;
39434;SDS011;30098;51.880;-0.518;2022-08-01T08:21:26;8.13;;;2.00;;
39434;SDS011;30098;51.880;-0.518;2022-08-01T08:23:52;3.90;;;2.00;;
39434;SDS011;30098;51.880;-0.518;2022-08-01T08:26:36;5.40;;;1.90;;
39434;SDS011;30098;51.880;-0.518;2022-08-01T08:29:02;5.47;;;2.25;;
39434;SDS011;30098;51.880;-0.518;2022-08-01T08:31:28;3.55;;;1.92;;
39434;SDS011;30098;51.880;-0.518;2022-08-01T08:33:54;6.63;;;2.17;;
39434;SDS011;30098;51.880;-0.518;2022-08-01T08:36:20;8.40;;;2.70;;
39434;SDS011;30098;51.880;-0.518;2022-08-01T08:38:45;7.72;;;2.72;;
39434;SDS011;30098;51.880;-0.518;2022-08-01T08:41:11;6.93;;;2.55;;
39434;SDS011;30098;51.880;-0.518;2022-08-01T08:43:37;6.82;;;2.40;;
39434;SDS011;30098;51.880;-0.518;2022-08-01T08:46:02;7.85;;;2.13;;
39434;SDS011;30098;51.880;-0.518;2022-08-01T08:48:30;6.47;;;2.13;;
39434;SDS011;30098;51.880;-0.518;2022-08-01T08:50:56;5.68;;;2.00;;
39434;SDS011;30098;51.880;-0.518;2022-08-01T08:53:22;3.83;;;1.80;;
39434;SDS011;30098;51.880;-0.518;2022-08-01T08:55:48;8.18;;;2.70;;
39434;SDS011;30098;51.880;-0.518;2022-08-01T08:58:15;10.00;;;2.10;;
39434;SDS011;30098;51.880;-0.518;2022-08-01T09:00:43;6.18;;;2.00;;
39434;SDS011;30098;51.880;-0.518;2022-08-01T09:03:09;6.07;;;1.98;;
39434;SDS011;30098;51.880;-0.518;2022-08-01T09:05:34;5.88;;;2.00;;
39434;SDS011;30098;51.880;-0.518;2022-08-01T09:08:00;4.65;;;2.00;;
39434;SDS011;30098;51.880;-0.518;2022-08-01T09:10:25;8.30;;;2.33;;
39434;SDS011;30098;51.880;-0.518;2022-08-01T09:13:10;6.25;;;2.13;;
39434;SDS011;30098;51.880;-0.518;2022-08-01T09:15:39;6.57;;;2.10;;
39434;SDS011;30098;51.880;-0.518;2022-08-01T09:18:24;8.38;;;2.30;;
39434;SDS011;30098;51.880;-0.518;2022-08-01T09:23:48;7.75;;;1.92;;
39434;SDS011;30098;51.880;-0.518;2022-08-01T09:26:16;5.85;;;2.20;;
39434;SDS011;30098;51.880;-0.518;2022-08-01T09:28:43;7.95;;;2.47;;
39434;SDS011;30098;51.880;-0.518;2022-08-01T09:31:14;6.32;;;2.10;;
39434;SDS011;30098;51.880;-0.518;2022-08-01T09:39:17;4.68;;;1.98;;
39434;SDS011;30098;51.880;-0.518;2022-08-01T09:41:44;10.10;;;2.30;;
39434;SDS011;30098;51.880;-0.518;2022-08-01T09:44:09;7.90;;;2.00;;
39434;SDS011;30098;51.880;-0.518;2022-08-01T09:46:35;4.43;;;1.95;;
39434;SDS011;30098;51.880;-0.518;2022-08-01T09:49:04;6.55;;;2.20;;
39434;SDS011;30098;51.880;-0.518;2022-08-01T09:51:35;7.15;;;2.20;;
39434;SDS011;30098;51.880;-0.518;2022-08-01T09:54:04;10.13;;;2.72;;
39434;SDS011;30098;51.880;-0.518;2022-08-01T09:56:40;7.97;;;2.10;;
39434;SDS011;30098;51.880;-0.518;2022-08-01T09:59:08;4.35;;;1.80;;
39434;SDS011;30098;51.880;-0.518;2022-08-01T10:01:48;5.45;;;2.20;;
39434;SDS011;30098;51.880;-0.518;2022-08-01T10:04:19;5.60;;;1.65;;
39434;SDS011;30098;51.880;-0.518;2022-08-01T10:06:46;4.85;;;2.10;;
39434;SDS011;30098;51.880;-0.518;2022-08-01T10:09:27;3.90;;;2.05;;
39434;SDS011;30098;51.880;-0.518;2022-08-01T10:11:54;5.43;;;2.20;;
39434;SDS011;30098;51.880;-0.518;2022-08-01T10:14:21;5.43;;;1.95;;
39434;SDS011;30098;51.880;-0.518;2022-08-01T10:16:49;3.33;;;1.70;;
39434;SDS011;30098;51.880;-0.518;2022-08-01T10:19:17;3.90;;;2.00;;
39434;SDS011;30098;51.880;-0.518;2022-08-01T10:21:46;3.20;;;1.90;;
39434;SDS011;30098;51.880;-0.518;2022-08-01T10:24:14;7.78;;;1.90;;
39434;SDS011;30098;51.880;-0.518;2022-08-01T10:26:41;4.40;;;2.10;;
39434;SDS011;30098;51.880;-0.518;2022-08-01T10:29:08;7.32;;;2.17;;
39434;SDS011;30098;51.880;-0.518;2022-08-01T10:31:34;4.32;;;1.92;;
39434;SDS011;30098;51.880;-0.518;2022-08-01T10:34:02;4.00;;;2.13;;
39434;SDS011;30098;51.880;-0.518;2022-08-01T10:36:29;5.70;;;1.98;;
39434;SDS011;30098;51.880;-0.518;2022-08-01T10:38:56;6.88;;;2.00;;
39434;SDS011;30098;51.880;-0.518;2022-08-01T10:41:22;9.32;;;2.70;;
39434;SDS011;30098;51.880;-0.518;2022-08-01T10:43:49;5.50;;;2.17;;
39434;SDS011;30098;51.880;-0.518;2022-08-01T10:46:17;4.40;;;2.15;;
39434;SDS011;30098;51.880;-0.518;2022-08-01T10:48:47;4.05;;;1.77;;
39434;SDS011;30098;51.880;-0.518;2022-08-01T10:51:20;5.72;;;2.20;;
39434;SDS011;30098;51.880;-0.518;2022-08-01T10:53:52;6.70;;;2.38;;
39434;SDS011;30098;51.880;-0.518;2022-08-01T10:56:19;7.10;;;2.60;;
39434;SDS011;30098;51.880;-0.518;2022-08-01T10:58:47;8.13;;;2.75;;
39434;SDS011;30098;51.880;-0.518;2022-08-01T11:03:38;7.70;;;2.40;;
39434;SDS011;30098;51.880;-0.518;2022-08-01T11:06:04;9.68;;;2.58;;
39434;SDS011;30098;51.880;-0.518;2022-08-01T11:08:29;6.15;;;2.47;;
39434;SDS011;30098;51.880;-0.518;2022-08-01T11:11:00;7.25;;;2.50;;
39434;SDS011;30098;51.880;-0.518;2022-08-01T11:16:27;4.78;;;2.38;;
39434;SDS011;30098;51.880;-0.518;2022-08-01T11:18:54;3.35;;;1.70;;
39434;SDS011;30098;51.880;-0.518;2022-08-01T11:21:19;5.30;;;2.08;;
39434;SDS011;30098;51.880;-0.518;2022-08-01T11:23:49;4.32;;;2.00;;
39434;SDS011;30098;51.880;-0.518;2022-08-01T11:26:19;2.85;;;1.80;;
39434;SDS011;30098;51.880;-0.518;2022-08-01T11:29:09;4.13;;;1.98;;
39434;SDS011;30098;51.880;-0.518;2022-08-01T11:31:41;3.72;;;1.90;;
39434;SDS011;30098;51.880;-0.518;2022-08-01T11:34:07;4.30;;;1.70;;
39434;SDS011;30098;51.880;-0.518;2022-08-01T11:36:33;4.50;;;2.03;;
39434;SDS011;30098;51.880;-0.518;2022-08-01T11:41:28;4.78;;;2.15;;
39434;SDS011;30098;51.880;-0.518;2022-08-01T11:47:18;6.30;;;2.15;;
39434;SDS011;30098;51.880;-0.518;2022-08-01T11:54:37;4.95;;;1.90;;
39434;SDS011;30098;51.880;-0.518;2022-08-01T11:57:03;3.20;;;1.83;;
39434;SDS011;30098;51.880;-0.518;2022-08-01T11:59:44;5.32;;;2.10;;
39434;SDS011;30098;51.880;-0.518;2022-08-01T12:02:18;4.43;;;1.92;;
39434;SDS011;30098;51.880;-0.518;2022-08-01T12:04:54;3.13;;;1.88;;
39434;SDS011;30098;51.880;-0.518;2022-08-01T12:07:25;5.53;;;1.90;;
39434;SDS011;30098;51.880;-0.518;2022-08-01T12:09:57;3.17;;;1.67;;
39434;SDS011;30098;51.880;-0.518;2022-08-01T12:12:22;2.90;;;1.73;;
39434;SDS011;30098;51.880;-0.518;2022-08-01T12:14:55;3.70;;;1.70;;
39434;SDS011;30098;51.880;-0.518;2022-08-01T12:17:56;3.00;;;1.70;;
39434;SDS011;30098;51.880;-0.518;2022-08-01T12:20:25;6.82;;;2.25;;
39434;SDS011;30098;51.880;-0.518;2022-08-01T12:22:55;3.60;;;2.00;;
39434;SDS011;30098;51.880;-0.518;2022-08-01T12:25:22;5.43;;;2.30;;
39434;SDS011;30098;51.880;-0.518;2022-08-01T12:27:48;4.88;;;2.10;;
39434;SDS011;30098;51.880;-0.518;2022-08-01T12:30:20;7.55;;;2.20;;
39434;SDS011;30098;51.880;-0.518;2022-08-01T12:32:48;5.03;;;2.22;;
39434;SDS011;30098;51.880;-0.518;2022-08-01T12:35:15;8.07;;;2.00;;
39434;SDS011;30098;51.880;-0.518;2022-08-01T12:37:46;5.10;;;2.13;;
39434;SDS011;30098;51.880;-0.518;2022-08-01T12:40:14;4.75;;;2.00;;
39434;SDS011;30098;51.880;-0.518;2022-08-01T12:42:51;4.63;;;2.10;;
39434;SDS011;30098;51.880;-0.518;2022-08-01T12:45:23;8.07;;;2.10;;
39434;SDS011;30098;51.880;-0.518;2022-08-01T12:47:54;2.58;;;1.75;;
39434;SDS011;30098;51.880;-0.518;2022-08-01T12:50:23;3.13;;;2.00;;
39434;SDS011;30098;51.880;-0.518;2022-08-01T12:52:50;4.50;;;2.00;;
39434;SDS011;30098;51.880;-0.518;2022-08-01T12:55:17;3.25;;;1.98;;
39434;SDS011;30098;51.880;-0.518;2022-08-01T12:57:48;3.90;;;1.90;;
39434;SDS011;30098;51.880;-0.518;2022-08-01T13:02:50;2.70;;;1.70;;
39434;SDS011;30098;51.880;-0.518;2022-08-01T13:05:24;3.45;;;2.10;;
39434;SDS011;30098;51.880;-0.518;2022-08-01T13:07:50;3.67;;;1.90;;
39434;SDS011;30098;51.880;-0.518;2022-08-01T13:10:27;2.90;;;1.85;;
39434;SDS011;30098;51.880;-0.518;2022-08-01T13:12:55;2.80;;;1.67;;
39434;SDS011;30098;51.880;-0.518;2022-08-01T13:15:23;2.65;;;1.50;;
39434;SDS011;30098;51.880;-0.518;2022-08-01T13:17:51;2.85;;;1.70;;
39434;SDS011;30098;51.880;-0.518;2022-08-01T13:20:22;2.90;;;1.85;;
39434;SDS011;30098;51.880;-0.518;2022-08-01T13:22:47;2.95;;;1.80;;
39434;SDS011;30098;51.880;-0.518;2022-08-01T13:25:14;7.45;;;2.10;;
39434;SDS011;30098;51.880;-0.518;2022-08-01T13:27:41;4.53;;;2.13;;
39434;SDS011;30098;51.880;-0.518;2022-08-01T13:30:10;2.88;;;2.00;;
39434;SDS011;30098;51.880;-0.518;2022-08-01T13:33:00;2.67;;;1.77;;
39434;SDS011;30098;51.880;-0.518;2022-08-01T13:35:26;3.38;;;1.77;;
39434;SDS011;30098;51.880;-0.518;2022-08-01T13:37:52;8.90;;;2.88;;
39434;SDS011;30098;51.880;-0.518;2022-08-01T13:40:25;3.90;;;1.92;;
39434;SDS011;30098;51.880;-0.518;2022-08-01T13:42:53;4.88;;;2.20;;
39434;SDS011;30098;51.880;-0.518;2022-08-01T13:45:21;3.83;;;2.40;;
39434;SDS011;30098;51.880;-0.518;2022-08-01T13:47:47;3.05;;;1.90;;
39434;SDS011;30098;51.880;-0.518;2022-08-01T13:50:12;5.43;;;1.92;;
39434;SDS011;30098;51.880;-0.518;2022-08-01T13:52:38;5.00;;;1.58;;
39434;SDS011;30098;51.880;-0.518;2022-08-01T13:55:03;4.05;;;1.90;;
39434;SDS011;30098;51.880;-0.518;2022-08-01T13:57:29;10.27;;;2.40;;
39434;SDS011;30098;51.880;-0.518;2022-08-01T13:59:55;3.67;;;2.22;;
39434;SDS011;30098;51.880;-0.518;2022-08-01T14:02:23;2.15;;;1.45;;
39434;SDS011;30098;51.880;-0.518;2022-08-01T14:04:48;2.95;;;1.55;;
39434;SDS011;30098;51.880;-0.518;2022-08-01T14:07:14;2.78;;;1.58;;
39434;SDS011;30098;51.880;-0.518;2022-08-01T14:09:39;2.67;;;1.60;;
39434;SDS011;30098;51.880;-0.518;2022-08-01T14:12:05;5.55;;;1.92;;
39434;SDS011;30098;51.880;-0.518;2022-08-01T14:14:30;5.97;;;2.10;;
39434;SDS011;30098;51.880;-0.518;2022-08-01T14:16:56;2.78;;;1.83;;
39434;SDS011;30098;51.880;-0.518;2022-08-01T14:19:21;3.38;;;1.80;;
39434;SDS011;30098;51.880;-0.518;2022-08-01T14:21:47;5.90;;;2.38;;
39434;SDS011;30098;51.880;-0.518;2022-08-01T14:24:13;3.80;;;1.83;;
39434;SDS011;30098;51.880;-0.518;2022-08-01T14:26:38;3.50;;;2.05;;
39434;SDS011;30098;51.880;-0.518;2022-08-01T14:29:04;3.63;;;1.73;;
39434;SDS011;30098;51.880;-0.518;2022-08-01T14:31:29;3.58;;;1.65;;
39434;SDS011;30098;51.880;-0.518;2022-08-01T14:33:55;3.53;;;1.73;;
39434;SDS011;30098;51.880;-0.518;2022-08-01T14:36:20;4.88;;;1.80;;
39434;SDS011;30098;51.880;-0.518;2022-08-01T14:38:46;6.80;;;1.90;;
39434;SDS011;30098;51.880;-0.518;2022-08-01T14:41:12;3.00;;;1.90;;
39434;SDS011;30098;51.880;-0.518;2022-08-01T14:43:38;4.75;;;1.95;;
39434;SDS011;30098;51.880;-0.518;2022-08-01T14:46:04;1.85;;;1.52;;
39434;SDS011;30098;51.880;-0.518;2022-08-01T14:48:29;3.10;;;1.60;;
39434;SDS011;30098;51.880;-0.518;2022-08-01T14:50:55;4.43;;;1.63;;
39434;SDS011;30098;51.880;-0.518;2022-08-01T14:53:21;6.63;;;2.20;;
39434;SDS011;30098;51.880;-0.518;2022-08-01T14:55:47;4.85;;;1.80;;
39434;SDS011;30098;51.880;-0.518;2022-08-01T14:58:13;10.05;;;2.72;;
39434;SDS011;30098;51.880;-0.518;2022-08-01T15:00:38;7.32;;;2.50;;
39434;SDS011;30098;51.880;-0.518;2022-08-01T15:03:04;15.95;;;4.30;;
39434;SDS011;30098;51.880;-0.518;2022-08-01T15:05:29;8.52;;;2.40;;
39434;SDS011;30098;51.880;-0.518;2022-08-01T15:07:56;3.70;;;1.80;;
39434;SDS011;30098;51.880;-0.518;2022-08-01T15:10:21;8.60;;;2.05;;
39434;SDS011;30098;51.880;-0.518;2022-08-01T15:12:48;4.45;;;1.90;;
39434;SDS011;30098;51.880;-0.518;2022-08-01T15:15:13;7.70;;;2.35;;